sensor_id;sensor_type;location;lat;lon;timestamp;pressure;altitude;pressure_sealevel;temperature;humidity
41830;BME280;38614;43.472;23.936;2023-04-29T00:00:07;100314.44;;;5.37;100.00
41830;BME280;38614;43.472;23.936;2023-04-29T00:03:00;100302.03;;;5.39;100.00
41830;BME280;38614;43.472;23.936;2023-04-29T00:05:48;100294.94;;;5.38;100.00
41830;BME280;38614;43.472;23.936;2023-04-29T00:08:36;100302.03;;;5.39;100.00
41830;BME280;38614;43.472;23.936;2023-04-29T00:11:24;100303.66;;;5.49;100.00
41830;BME280;38614;43.472;23.936;2023-04-29T00:14:12;100288.63;;;5.38;100.00
41830;BME280;38614;43.472;23.936;2023-04-29T00:17:00;100296.72;;;5.43;100.00
41830;BME280;38614;43.472;23.936;2023-04-29T00:19:48;100255.91;;;5.24;100.00
41830;BME280;38614;43.472;23.936;2023-04-29T00:22:37;100261.22;;;5.29;100.00
41830;BME280;38614;43.472;23.936;2023-04-29T00:25:25;100275.94;;;5.42;100.00
41830;BME280;38614;43.472;23.936;2023-04-29T00:28:13;100290.13;;;5.53;100.00
41830;BME280;38614;43.472;23.936;2023-04-29T00:31:00;100261.09;;;5.34;100.00
41830;BME280;38614;43.472;23.936;2023-04-29T00:33:48;100279.63;;;5.55;100.00
41830;BME280;38614;43.472;23.936;2023-04-29T00:36:39;100256.41;;;5.43;100.00
41830;BME280;38614;43.472;23.936;2023-04-29T00:39:27;100282.69;;;5.53;100.00
41830;BME280;38614;43.472;23.936;2023-04-29T00:42:17;100280.75;;;5.54;100.00
41830;BME280;38614;43.472;23.936;2023-04-29T00:45:05;100238.69;;;5.32;100.00
41830;BME280;38614;43.472;23.936;2023-04-29T00:47:54;100273.19;;;5.51;100.00
41830;BME280;38614;43.472;23.936;2023-04-29T00:50:42;100267.22;;;5.49;100.00
41830;BME280;38614;43.472;23.936;2023-04-29T00:53:30;100274.31;;;5.50;100.00
41830;BME280;38614;43.472;23.936;2023-04-29T00:56:19;100273.19;;;5.42;100.00
41830;BME280;38614;43.472;23.936;2023-04-29T00:59:11;100249.78;;;5.27;100.00
41830;BME280;38614;43.472;23.936;2023-04-29T01:02:00;100273.66;;;5.35;100.00
41830;BME280;38614;43.472;23.936;2023-04-29T01:04:48;100269.78;;;5.28;100.00
41830;BME280;38614;43.472;23.936;2023-04-29T01:07:51;100269.97;;;5.31;100.00
41830;BME280;38614;43.472;23.936;2023-04-29T01:10:48;100266.88;;;5.24;100.00
41830;BME280;38614;43.472;23.936;2023-04-29T01:13:48;100238.81;;;5.10;100.00
41830;BME280;38614;43.472;23.936;2023-04-29T01:16:41;100277.19;;;5.27;100.00
41830;BME280;38614;43.472;23.936;2023-04-29T01:19:49;100270.88;;;5.18;100.00
41830;BME280;38614;43.472;23.936;2023-04-29T01:22:39;100268.94;;;5.10;100.00
41830;BME280;38614;43.472;23.936;2023-04-29T01:25:27;100273.13;;;5.07;100.00
41830;BME280;38614;43.472;23.936;2023-04-29T01:28:52;100238.63;;;4.89;100.00
41830;BME280;38614;43.472;23.936;2023-04-29T01:31:49;100253.28;;;4.93;100.00
41830;BME280;38614;43.472;23.936;2023-04-29T01:34:57;100238.47;;;4.85;100.00
41830;BME280;38614;43.472;23.936;2023-04-29T01:38:11;100267.94;;;4.97;100.00
41830;BME280;38614;43.472;23.936;2023-04-29T01:44:07;100258.44;;;4.95;100.00
41830;BME280;38614;43.472;23.936;2023-04-29T01:46:55;100258.44;;;4.95;100.00
41830;BME280;38614;43.472;23.936;2023-04-29T01:49:53;100259.75;;;4.97;100.00
41830;BME280;38614;43.472;23.936;2023-04-29T01:52:41;100223.09;;;4.67;100.00
41830;BME280;38614;43.472;23.936;2023-04-29T01:55:29;100245.34;;;4.83;100.00
41830;BME280;38614;43.472;23.936;2023-04-29T01:58:32;100248.13;;;4.92;100.00
41830;BME280;38614;43.472;23.936;2023-04-29T02:01:48;100219.84;;;4.65;100.00
41830;BME280;38614;43.472;23.936;2023-04-29T02:04:36;100256.84;;;4.94;100.00
41830;BME280;38614;43.472;23.936;2023-04-29T02:07:24;100253.91;;;4.90;100.00
41830;BME280;38614;43.472;23.936;2023-04-29T02:10:12;100250.03;;;4.82;100.00
41830;BME280;38614;43.472;23.936;2023-04-29T02:13:05;100258.75;;;4.84;100.00
41830;BME280;38614;43.472;23.936;2023-04-29T02:15:57;100264.84;;;4.81;100.00
41830;BME280;38614;43.472;23.936;2023-04-29T02:18:44;100257.75;;;4.80;100.00
41830;BME280;38614;43.472;23.936;2023-04-29T02:21:32;100259.00;;;4.74;100.00
41830;BME280;38614;43.472;23.936;2023-04-29T02:24:21;100256.91;;;4.71;100.00
41830;BME280;38614;43.472;23.936;2023-04-29T02:27:09;100267.25;;;4.83;100.00
41830;BME280;38614;43.472;23.936;2023-04-29T02:29:56;100242.44;;;4.71;100.00
41830;BME280;38614;43.472;23.936;2023-04-29T02:32:45;100262.44;;;4.80;100.00
41830;BME280;38614;43.472;23.936;2023-04-29T02:35:33;100253.53;;;4.74;100.00
41830;BME280;38614;43.472;23.936;2023-04-29T02:38:21;100252.25;;;4.72;100.00
41830;BME280;38614;43.472;23.936;2023-04-29T02:41:09;100260.66;;;4.75;100.00
41830;BME280;38614;43.472;23.936;2023-04-29T02:43:59;100267.88;;;4.71;100.00
41830;BME280;38614;43.472;23.936;2023-04-29T02:47:06;100254.31;;;4.57;100.00
41830;BME280;38614;43.472;23.936;2023-04-29T02:49:54;100283.81;;;4.69;100.00
41830;BME280;38614;43.472;23.936;2023-04-29T02:52:44;100276.53;;;4.65;100.00
41830;BME280;38614;43.472;23.936;2023-04-29T02:55:33;100293.63;;;4.70;100.00
41830;BME280;38614;43.472;23.936;2023-04-29T02:58:26;100277.97;;;4.62;100.00
41830;BME280;38614;43.472;23.936;2023-04-29T03:01:14;100266.34;;;4.48;100.00
41830;BME280;38614;43.472;23.936;2023-04-29T03:04:03;100259.50;;;4.37;100.00
41830;BME280;38614;43.472;23.936;2023-04-29T03:06:54;100284.72;;;4.56;100.00
41830;BME280;38614;43.472;23.936;2023-04-29T03:09:45;100285.19;;;4.49;100.00
41830;BME280;38614;43.472;23.936;2023-04-29T03:12:33;100292.44;;;4.54;100.00
41830;BME280;38614;43.472;23.936;2023-04-29T03:15:21;100289.69;;;4.54;100.00
41830;BME280;38614;43.472;23.936;2023-04-29T03:18:10;100264.22;;;4.45;100.00
41830;BME280;38614;43.472;23.936;2023-04-29T03:20:57;100264.75;;;4.55;100.00
41830;BME280;38614;43.472;23.936;2023-04-29T03:23:46;100283.66;;;4.74;100.00
41830;BME280;38614;43.472;23.936;2023-04-29T03:26:39;100281.88;;;4.70;100.00
41830;BME280;38614;43.472;23.936;2023-04-29T03:29:30;100292.84;;;4.70;100.00
41830;BME280;38614;43.472;23.936;2023-04-29T03:32:17;100241.81;;;4.34;100.00
41830;BME280;38614;43.472;23.936;2023-04-29T03:35:05;100245.16;;;4.71;100.00
41830;BME280;38614;43.472;23.936;2023-04-29T03:37:58;100277.16;;;5.10;100.00
41830;BME280;38614;43.472;23.936;2023-04-29T03:40:49;100297.16;;;5.19;100.00
41830;BME280;38614;43.472;23.936;2023-04-29T03:43:37;100293.97;;;5.26;100.00
41830;BME280;38614;43.472;23.936;2023-04-29T03:46:27;100302.84;;;5.49;100.00
41830;BME280;38614;43.472;23.936;2023-04-29T03:49:15;100289.97;;;5.40;100.00
41830;BME280;38614;43.472;23.936;2023-04-29T03:52:03;100302.34;;;5.47;100.00
41830;BME280;38614;43.472;23.936;2023-04-29T03:54:51;100266.56;;;5.34;100.00
41830;BME280;38614;43.472;23.936;2023-04-29T03:57:39;100312.22;;;5.65;100.00
41830;BME280;38614;43.472;23.936;2023-04-29T04:00:30;100313.50;;;5.76;100.00
41830;BME280;38614;43.472;23.936;2023-04-29T04:03:21;100319.78;;;5.85;100.00
41830;BME280;38614;43.472;23.936;2023-04-29T04:06:10;100315.44;;;5.76;100.00
41830;BME280;38614;43.472;23.936;2023-04-29T04:09:00;100319.00;;;5.93;100.00
41830;BME280;38614;43.472;23.936;2023-04-29T04:11:50;100283.50;;;5.80;100.00
41830;BME280;38614;43.472;23.936;2023-04-29T04:14:39;100323.34;;;6.12;100.00
41830;BME280;38614;43.472;23.936;2023-04-29T04:17:29;100305.59;;;6.18;100.00
41830;BME280;38614;43.472;23.936;2023-04-29T04:20:16;100322.19;;;6.30;100.00
41830;BME280;38614;43.472;23.936;2023-04-29T04:23:05;100304.06;;;6.46;100.00
41830;BME280;38614;43.472;23.936;2023-04-29T04:25:53;100300.66;;;6.49;100.00
41830;BME280;38614;43.472;23.936;2023-04-29T04:29:19;100311.78;;;6.62;100.00
41830;BME280;38614;43.472;23.936;2023-04-29T04:32:16;100301.75;;;6.66;100.00
41830;BME280;38614;43.472;23.936;2023-04-29T04:35:06;100292.00;;;6.77;100.00
41830;BME280;38614;43.472;23.936;2023-04-29T04:37:54;100280.47;;;6.92;100.00
41830;BME280;38614;43.472;23.936;2023-04-29T04:40:43;100297.88;;;7.26;100.00
41830;BME280;38614;43.472;23.936;2023-04-29T04:44:03;100292.22;;;7.52;100.00
41830;BME280;38614;43.472;23.936;2023-04-29T04:47:09;100295.09;;;7.76;100.00
41830;BME280;38614;43.472;23.936;2023-04-29T04:50:19;100285.41;;;7.91;100.00
41830;BME280;38614;43.472;23.936;2023-04-29T04:53:08;100287.63;;;7.97;100.00
41830;BME280;38614;43.472;23.936;2023-04-29T04:56:20;100278.91;;;8.28;100.00
41830;BME280;38614;43.472;23.936;2023-04-29T04:59:08;100287.63;;;8.31;100.00
41830;BME280;38614;43.472;23.936;2023-04-29T05:01:59;100290.78;;;8.53;100.00
41830;BME280;38614;43.472;23.936;2023-04-29T05:04:48;100283.38;;;8.66;100.00
41830;BME280;38614;43.472;23.936;2023-04-29T05:07:38;100304.97;;;8.76;100.00
41830;BME280;38614;43.472;23.936;2023-04-29T05:10:29;100315.88;;;8.97;100.00
41830;BME280;38614;43.472;23.936;2023-04-29T05:13:21;100308.97;;;9.28;100.00
41830;BME280;38614;43.472;23.936;2023-04-29T05:16:12;100313.00;;;9.18;100.00
41830;BME280;38614;43.472;23.936;2023-04-29T05:19:04;100296.09;;;9.32;100.00
41830;BME280;38614;43.472;23.936;2023-04-29T05:22:01;100272.59;;;9.62;100.00
41830;BME280;38614;43.472;23.936;2023-04-29T05:24:50;100286.25;;;9.99;100.00
41830;BME280;38614;43.472;23.936;2023-04-29T05:27:40;100299.28;;;10.26;100.00
41830;BME280;38614;43.472;23.936;2023-04-29T05:30:33;100278.06;;;10.03;100.00
41830;BME280;38614;43.472;23.936;2023-04-29T05:33:21;100271.66;;;9.98;100.00
41830;BME280;38614;43.472;23.936;2023-04-29T05:36:09;100304.50;;;10.04;100.00
41830;BME280;38614;43.472;23.936;2023-04-29T05:38:57;100305.78;;;9.78;100.00
41830;BME280;38614;43.472;23.936;2023-04-29T05:41:45;100309.53;;;9.86;100.00
41830;BME280;38614;43.472;23.936;2023-04-29T05:44:40;100300.50;;;9.73;100.00
41830;BME280;38614;43.472;23.936;2023-04-29T05:47:28;100305.81;;;9.94;100.00
41830;BME280;38614;43.472;23.936;2023-04-29T05:50:16;100293.16;;;10.21;100.00
41830;BME280;38614;43.472;23.936;2023-04-29T05:53:04;100293.59;;;10.51;100.00
41830;BME280;38614;43.472;23.936;2023-04-29T05:55:52;100301.56;;;10.84;100.00
41830;BME280;38614;43.472;23.936;2023-04-29T05:58:41;100295.13;;;11.11;100.00
41830;BME280;38614;43.472;23.936;2023-04-29T06:01:28;100283.34;;;11.50;100.00
41830;BME280;38614;43.472;23.936;2023-04-29T06:04:17;100276.56;;;11.47;100.00
41830;BME280;38614;43.472;23.936;2023-04-29T06:07:18;100282.75;;;11.40;100.00
41830;BME280;38614;43.472;23.936;2023-04-29T06:10:26;100283.94;;;11.78;100.00
41830;BME280;38614;43.472;23.936;2023-04-29T06:13:14;100265.75;;;11.96;100.00
41830;BME280;38614;43.472;23.936;2023-04-29T06:16:02;100293.88;;;12.60;100.00
41830;BME280;38614;43.472;23.936;2023-04-29T06:18:53;100286.34;;;12.83;100.00
41830;BME280;38614;43.472;23.936;2023-04-29T06:21:44;100267.38;;;13.12;100.00
41830;BME280;38614;43.472;23.936;2023-04-29T06:24:32;100290.03;;;13.14;100.00
41830;BME280;38614;43.472;23.936;2023-04-29T06:27:20;100281.69;;;13.14;100.00
41830;BME280;38614;43.472;23.936;2023-04-29T06:30:08;100293.13;;;13.62;100.00
41830;BME280;38614;43.472;23.936;2023-04-29T06:32:57;100282.63;;;14.45;100.00
41830;BME280;38614;43.472;23.936;2023-04-29T06:35:46;100269.72;;;14.67;100.00
41830;BME280;38614;43.472;23.936;2023-04-29T06:38:53;100280.34;;;15.61;100.00
41830;BME280;38614;43.472;23.936;2023-04-29T06:42:10;100261.97;;;15.53;100.00
41830;BME280;38614;43.472;23.936;2023-04-29T06:45:18;100284.22;;;16.47;100.00
41830;BME280;38614;43.472;23.936;2023-04-29T06:48:18;100251.59;;;17.12;100.00
41830;BME280;38614;43.472;23.936;2023-04-29T06:51:07;100275.41;;;17.80;100.00
41830;BME280;38614;43.472;23.936;2023-04-29T06:53:56;100270.63;;;18.54;100.00
41830;BME280;38614;43.472;23.936;2023-04-29T06:56:44;100266.41;;;18.87;91.39
41830;BME280;38614;43.472;23.936;2023-04-29T06:59:32;100235.31;;;18.12;91.86
41830;BME280;38614;43.472;23.936;2023-04-29T07:02:23;100263.41;;;17.83;94.06
41830;BME280;38614;43.472;23.936;2023-04-29T07:05:11;100239.97;;;17.45;90.58
41830;BME280;38614;43.472;23.936;2023-04-29T07:08:02;100264.22;;;17.84;91.14
41830;BME280;38614;43.472;23.936;2023-04-29T07:10:56;100217.72;;;16.74;93.13
41830;BME280;38614;43.472;23.936;2023-04-29T07:13:44;100234.06;;;17.22;95.49
41830;BME280;38614;43.472;23.936;2023-04-29T07:16:32;100242.38;;;17.36;92.96
41830;BME280;38614;43.472;23.936;2023-04-29T07:19:20;100250.41;;;17.09;92.44
41830;BME280;38614;43.472;23.936;2023-04-29T07:22:08;100257.81;;;17.90;92.18
41830;BME280;38614;43.472;23.936;2023-04-29T07:24:56;100257.84;;;17.76;87.40
41830;BME280;38614;43.472;23.936;2023-04-29T07:27:44;100261.66;;;18.18;89.56
41830;BME280;38614;43.472;23.936;2023-04-29T07:30:38;100261.34;;;18.02;87.36
41830;BME280;38614;43.472;23.936;2023-04-29T07:33:26;100248.72;;;18.45;85.42
41830;BME280;38614;43.472;23.936;2023-04-29T07:36:14;100243.06;;;19.04;86.31
41830;BME280;38614;43.472;23.936;2023-04-29T07:39:03;100252.25;;;19.84;82.39
41830;BME280;38614;43.472;23.936;2023-04-29T07:41:51;100258.28;;;19.82;77.50
41830;BME280;38614;43.472;23.936;2023-04-29T07:44:40;100255.69;;;19.64;74.73
41830;BME280;38614;43.472;23.936;2023-04-29T07:47:27;100245.25;;;19.65;70.30
41830;BME280;38614;43.472;23.936;2023-04-29T07:50:18;100242.16;;;20.17;73.13
41830;BME280;38614;43.472;23.936;2023-04-29T07:53:06;100238.16;;;20.48;74.47
41830;BME280;38614;43.472;23.936;2023-04-29T07:55:55;100250.97;;;20.49;69.52
41830;BME280;38614;43.472;23.936;2023-04-29T07:58:45;100237.91;;;21.10;69.27
41830;BME280;38614;43.472;23.936;2023-04-29T08:01:33;100241.72;;;21.23;64.55
41830;BME280;38614;43.472;23.936;2023-04-29T08:04:21;100232.97;;;20.94;61.30
41830;BME280;38614;43.472;23.936;2023-04-29T08:07:18;100237.97;;;21.29;59.86
41830;BME280;38614;43.472;23.936;2023-04-29T08:10:07;100241.66;;;21.26;61.89
41830;BME280;38614;43.472;23.936;2023-04-29T08:12:56;100237.72;;;21.44;60.19
41830;BME280;38614;43.472;23.936;2023-04-29T08:15:44;100231.06;;;22.13;59.01
41830;BME280;38614;43.472;23.936;2023-04-29T08:18:32;100237.56;;;22.46;57.38
41830;BME280;38614;43.472;23.936;2023-04-29T08:21:20;100236.91;;;22.03;52.15
41830;BME280;38614;43.472;23.936;2023-04-29T08:24:07;100238.72;;;22.65;58.68
41830;BME280;38614;43.472;23.936;2023-04-29T08:26:55;100225.75;;;22.35;52.19
41830;BME280;38614;43.472;23.936;2023-04-29T08:29:43;100216.00;;;22.56;49.51
41830;BME280;38614;43.472;23.936;2023-04-29T08:32:31;100209.84;;;22.61;51.33
41830;BME280;38614;43.472;23.936;2023-04-29T08:35:18;100222.25;;;23.13;55.11
41830;BME280;38614;43.472;23.936;2023-04-29T08:38:08;100216.72;;;22.93;51.61
41830;BME280;38614;43.472;23.936;2023-04-29T08:40:56;100227.38;;;22.53;50.01
41830;BME280;38614;43.472;23.936;2023-04-29T08:43:44;100223.06;;;22.97;53.43
41830;BME280;38614;43.472;23.936;2023-04-29T08:46:33;100215.91;;;22.76;50.18
41830;BME280;38614;43.472;23.936;2023-04-29T08:49:21;100223.72;;;23.63;53.34
41830;BME280;38614;43.472;23.936;2023-04-29T08:52:08;100223.63;;;24.59;51.97
41830;BME280;38614;43.472;23.936;2023-04-29T08:55:00;100208.53;;;22.98;48.53
41830;BME280;38614;43.472;23.936;2023-04-29T08:57:53;100222.34;;;23.09;46.01
41830;BME280;38614;43.472;23.936;2023-04-29T09:00:43;100211.47;;;23.82;46.55
41830;BME280;38614;43.472;23.936;2023-04-29T09:03:49;100223.19;;;23.68;47.10
41830;BME280;38614;43.472;23.936;2023-04-29T09:06:42;100192.63;;;23.50;47.65
41830;BME280;38614;43.472;23.936;2023-04-29T09:09:30;100203.41;;;23.39;43.56
41830;BME280;38614;43.472;23.936;2023-04-29T09:12:19;100194.97;;;22.93;45.89
41830;BME280;38614;43.472;23.936;2023-04-29T09:15:35;100215.69;;;23.32;47.83
41830;BME280;38614;43.472;23.936;2023-04-29T09:21:58;100197.16;;;22.69;44.00
41830;BME280;38614;43.472;23.936;2023-04-29T09:24:46;100188.47;;;22.80;46.95
41830;BME280;38614;43.472;23.936;2023-04-29T09:27:35;100191.03;;;23.49;44.71
41830;BME280;38614;43.472;23.936;2023-04-29T09:30:24;100171.91;;;22.50;45.37
41830;BME280;38614;43.472;23.936;2023-04-29T09:33:13;100192.44;;;23.57;45.56
41830;BME280;38614;43.472;23.936;2023-04-29T09:36:03;100194.53;;;23.82;44.16
41830;BME280;38614;43.472;23.936;2023-04-29T09:38:55;100188.69;;;24.27;44.95
41830;BME280;38614;43.472;23.936;2023-04-29T09:44:41;100183.72;;;24.06;43.58
41830;BME280;38614;43.472;23.936;2023-04-29T09:47:30;100167.63;;;24.32;47.51
41830;BME280;38614;43.472;23.936;2023-04-29T09:50:21;100164.84;;;23.77;44.46
41830;BME280;38614;43.472;23.936;2023-04-29T09:53:10;100158.50;;;23.31;42.70
41830;BME280;38614;43.472;23.936;2023-04-29T09:56:00;100173.50;;;23.28;47.86
41830;BME280;38614;43.472;23.936;2023-04-29T09:58:48;100166.63;;;23.29;46.96
41830;BME280;38614;43.472;23.936;2023-04-29T10:01:36;100172.06;;;23.37;46.54
41830;BME280;38614;43.472;23.936;2023-04-29T10:04:26;100161.84;;;23.26;46.51
41830;BME280;38614;43.472;23.936;2023-04-29T10:07:17;100162.84;;;23.49;48.24
41830;BME280;38614;43.472;23.936;2023-04-29T10:10:06;100148.44;;;23.18;45.21
41830;BME280;38614;43.472;23.936;2023-04-29T10:12:54;100120.16;;;22.60;45.27
41830;BME280;38614;43.472;23.936;2023-04-29T10:15:48;100150.84;;;23.45;43.78
41830;BME280;38614;43.472;23.936;2023-04-29T10:18:40;100137.19;;;23.72;44.70
41830;BME280;38614;43.472;23.936;2023-04-29T10:21:31;100158.28;;;23.68;46.48
41830;BME280;38614;43.472;23.936;2023-04-29T10:24:20;100150.34;;;22.75;42.97
41830;BME280;38614;43.472;23.936;2023-04-29T10:27:09;100147.72;;;22.36;46.14
41830;BME280;38614;43.472;23.936;2023-04-29T10:30:02;100138.47;;;22.19;49.68
41830;BME280;38614;43.472;23.936;2023-04-29T10:32:51;100140.31;;;21.73;44.26
41830;BME280;38614;43.472;23.936;2023-04-29T10:35:42;100140.16;;;21.80;47.30
41830;BME280;38614;43.472;23.936;2023-04-29T10:38:38;100140.16;;;21.80;48.13
41830;BME280;38614;43.472;23.936;2023-04-29T10:41:36;100146.56;;;21.81;45.81
41830;BME280;38614;43.472;23.936;2023-04-29T10:44:25;100141.94;;;21.34;46.59
41830;BME280;38614;43.472;23.936;2023-04-29T10:47:20;100137.31;;;21.44;47.51
41830;BME280;38614;43.472;23.936;2023-04-29T10:50:08;100137.94;;;21.72;47.27
41830;BME280;38614;43.472;23.936;2023-04-29T10:53:05;100136.56;;;21.20;48.73
41830;BME280;38614;43.472;23.936;2023-04-29T10:55:57;100132.63;;;21.38;49.51
41830;BME280;38614;43.472;23.936;2023-04-29T10:58:45;100132.00;;;22.02;50.01
41830;BME280;38614;43.472;23.936;2023-04-29T11:01:59;100130.03;;;21.47;45.92
41830;BME280;38614;43.472;23.936;2023-04-29T11:05:07;100122.69;;;21.53;48.72
41830;BME280;38614;43.472;23.936;2023-04-29T11:08:12;100110.91;;;21.58;50.28
41830;BME280;38614;43.472;23.936;2023-04-29T11:11:00;100116.50;;;22.30;47.91
41830;BME280;38614;43.472;23.936;2023-04-29T11:13:51;100120.75;;;22.02;49.71
41830;BME280;38614;43.472;23.936;2023-04-29T11:16:51;100116.00;;;21.99;49.56
41830;BME280;38614;43.472;23.936;2023-04-29T11:19:50;100118.38;;;22.01;48.02
41830;BME280;38614;43.472;23.936;2023-04-29T11:22:39;100114.50;;;21.95;48.67
41830;BME280;38614;43.472;23.936;2023-04-29T11:25:30;100107.16;;;21.65;48.57
41830;BME280;38614;43.472;23.936;2023-04-29T11:28:18;100118.63;;;21.90;47.56
41830;BME280;38614;43.472;23.936;2023-04-29T11:31:09;100107.34;;;21.74;47.81
41830;BME280;38614;43.472;23.936;2023-04-29T11:33:58;100050.31;;;21.37;46.82
41830;BME280;38614;43.472;23.936;2023-04-29T11:36:49;100098.75;;;21.45;45.94
41830;BME280;38614;43.472;23.936;2023-04-29T11:39:37;100112.22;;;21.14;45.65
41830;BME280;38614;43.472;23.936;2023-04-29T11:42:28;100114.47;;;21.22;47.61
41830;BME280;38614;43.472;23.936;2023-04-29T11:45:19;100093.06;;;21.28;48.62
41830;BME280;38614;43.472;23.936;2023-04-29T11:48:06;100105.94;;;21.06;45.92
41830;BME280;38614;43.472;23.936;2023-04-29T11:50:58;100109.91;;;21.09;47.59
41830;BME280;38614;43.472;23.936;2023-04-29T11:53:46;100107.28;;;20.78;48.06
41830;BME280;38614;43.472;23.936;2023-04-29T11:56:36;100119.03;;;20.49;49.66
41830;BME280;38614;43.472;23.936;2023-04-29T11:59:25;100117.03;;;20.23;48.06
41830;BME280;38614;43.472;23.936;2023-04-29T12:02:13;100084.34;;;20.13;48.75
41830;BME280;38614;43.472;23.936;2023-04-29T12:05:07;100113.34;;;19.76;48.29
41830;BME280;38614;43.472;23.936;2023-04-29T12:07:55;100069.19;;;19.53;48.52
41830;BME280;38614;43.472;23.936;2023-04-29T12:10:43;100101.63;;;19.84;50.63
41830;BME280;38614;43.472;23.936;2023-04-29T12:13:33;100116.19;;;19.72;51.30
41830;BME280;38614;43.472;23.936;2023-04-29T12:16:26;100109.16;;;19.60;50.79
41830;BME280;38614;43.472;23.936;2023-04-29T12:19:15;100112.34;;;18.94;56.61
41830;BME280;38614;43.472;23.936;2023-04-29T12:22:04;100117.69;;;18.82;59.63
41830;BME280;38614;43.472;23.936;2023-04-29T12:24:56;100098.88;;;18.37;62.42
41830;BME280;38614;43.472;23.936;2023-04-29T12:27:43;100118.09;;;18.35;63.23
41830;BME280;38614;43.472;23.936;2023-04-29T12:30:33;100110.13;;;18.34;63.22
41830;BME280;38614;43.472;23.936;2023-04-29T12:33:27;100116.19;;;18.21;65.06
41830;BME280;38614;43.472;23.936;2023-04-29T12:36:16;100108.22;;;18.20;64.55
41830;BME280;38614;43.472;23.936;2023-04-29T12:39:05;100109.97;;;17.96;64.40
41830;BME280;38614;43.472;23.936;2023-04-29T12:41:57;100105.25;;;17.89;65.84
41830;BME280;38614;43.472;23.936;2023-04-29T12:44:47;100093.88;;;17.52;66.35
41830;BME280;38614;43.472;23.936;2023-04-29T12:47:46;100108.25;;;17.47;66.12
41830;BME280;38614;43.472;23.936;2023-04-29T12:50:36;100100.69;;;17.51;68.16
41830;BME280;38614;43.472;23.936;2023-04-29T12:53:31;100108.66;;;17.52;68.89
41830;BME280;38614;43.472;23.936;2023-04-29T12:56:21;100111.47;;;17.45;68.14
41830;BME280;38614;43.472;23.936;2023-04-29T12:59:10;100109.91;;;17.41;68.00
41830;BME280;38614;43.472;23.936;2023-04-29T13:01:59;100099.53;;;17.41;71.22
41830;BME280;38614;43.472;23.936;2023-04-29T13:04:47;100095.59;;;17.31;75.93
41830;BME280;38614;43.472;23.936;2023-04-29T13:07:36;100076.56;;;16.98;82.31
41830;BME280;38614;43.472;23.936;2023-04-29T13:10:24;100107.63;;;17.07;89.16
41830;BME280;38614;43.472;23.936;2023-04-29T13:13:12;100096.94;;;16.73;96.90
41830;BME280;38614;43.472;23.936;2023-04-29T13:16:00;100104.91;;;16.75;100.00
41830;BME280;38614;43.472;23.936;2023-04-29T13:18:50;100092.19;;;16.60;100.00
41830;BME280;38614;43.472;23.936;2023-04-29T13:21:58;100107.72;;;16.53;100.00
41830;BME280;38614;43.472;23.936;2023-04-29T13:24:46;100102.16;;;16.46;100.00
41830;BME280;38614;43.472;23.936;2023-04-29T13:27:34;100075.88;;;16.15;100.00
41830;BME280;38614;43.472;23.936;2023-04-29T13:30:21;100104.13;;;16.46;100.00
41830;BME280;38614;43.472;23.936;2023-04-29T13:33:10;100113.72;;;16.27;100.00
41830;BME280;38614;43.472;23.936;2023-04-29T13:36:00;100105.75;;;16.40;100.00
41830;BME280;38614;43.472;23.936;2023-04-29T13:38:47;100109.31;;;15.98;100.00
41830;BME280;38614;43.472;23.936;2023-04-29T13:41:41;100077.84;;;15.79;100.00
41830;BME280;38614;43.472;23.936;2023-04-29T13:44:33;100096.56;;;15.89;100.00
41830;BME280;38614;43.472;23.936;2023-04-29T13:47:41;100103.31;;;15.81;100.00
41830;BME280;38614;43.472;23.936;2023-04-29T13:50:51;100095.28;;;15.58;100.00
41830;BME280;38614;43.472;23.936;2023-04-29T13:53:42;100097.38;;;15.83;100.00
41830;BME280;38614;43.472;23.936;2023-04-29T13:56:53;100075.84;;;15.80;100.00
41830;BME280;38614;43.472;23.936;2023-04-29T14:00:06;100080.66;;;16.08;100.00
41830;BME280;38614;43.472;23.936;2023-04-29T14:03:15;100085.81;;;15.77;100.00
41830;BME280;38614;43.472;23.936;2023-04-29T14:06:05;100060.28;;;15.57;100.00
41830;BME280;38614;43.472;23.936;2023-04-29T14:08:53;100063.13;;;15.68;100.00
41830;BME280;38614;43.472;23.936;2023-04-29T14:11:51;100081.03;;;15.78;100.00
41830;BME280;38614;43.472;23.936;2023-04-29T14:14:42;100061.50;;;15.71;100.00
41830;BME280;38614;43.472;23.936;2023-04-29T14:17:30;100061.13;;;15.68;100.00
41830;BME280;38614;43.472;23.936;2023-04-29T14:20:18;100068.31;;;15.77;100.00
41830;BME280;38614;43.472;23.936;2023-04-29T14:23:07;100036.06;;;15.76;100.00
41830;BME280;38614;43.472;23.936;2023-04-29T14:25:58;100065.13;;;16.00;100.00
41830;BME280;38614;43.472;23.936;2023-04-29T14:29:09;100062.75;;;16.16;100.00
41830;BME280;38614;43.472;23.936;2023-04-29T14:31:57;100058.38;;;16.11;100.00
41830;BME280;38614;43.472;23.936;2023-04-29T14:34:46;100061.53;;;16.28;100.00
41830;BME280;38614;43.472;23.936;2023-04-29T14:37:34;100061.53;;;16.31;100.00
41830;BME280;38614;43.472;23.936;2023-04-29T14:40:21;100055.97;;;16.38;100.00
41830;BME280;38614;43.472;23.936;2023-04-29T14:43:09;100025.28;;;16.28;100.00
41830;BME280;38614;43.472;23.936;2023-04-29T14:45:57;100045.16;;;16.51;100.00
41830;BME280;38614;43.472;23.936;2023-04-29T14:48:45;100054.75;;;16.50;100.00
41830;BME280;38614;43.472;23.936;2023-04-29T14:51:33;100052.34;;;16.45;100.00